Time;durP1;ratioP1;P1;durP2;ratioP2;P2;SDS_P1;SDS_P2;PMS_P1;PMS_P2;Temp;Humidity;BMP_temperature;BMP_pressure;BME280_temperature;BME280_humidity;BME280_pressure;Samples;Min_cycle;Max_cycle;Signal;HPM_P1;HPM_P2
2023/01/14 00:02:25;;;;;;;1999.90;999.90;;;8.30;1.00;;;;;;5037704;28;20177;-68
2023/01/14 00:04:50;;;;;;;1999.90;999.90;;;8.40;1.00;;;;;;5037828;28;20178;-69
2023/01/14 00:07:16;;;;;;;1999.90;999.90;;;8.40;1.00;;;;;;5036894;28;20178;-68
2023/01/14 00:09:42;;;;;;;1999.90;999.90;;;8.30;1.00;;;;;;5035794;28;20259;-69
2023/01/14 00:12:08;;;;;;;1999.90;999.90;;;8.30;1.00;;;;;;5036540;28;20859;-69
2023/01/14 00:14:33;;;;;;;1999.90;999.90;;;8.20;1.00;;;;;;5036472;28;20426;-69
2023/01/14 00:17:00;;;;;;;1999.90;999.90;;;8.20;1.00;;;;;;5036290;28;20174;-69
2023/01/14 00:19:26;;;;;;;1999.90;999.90;;;8.20;1.00;;;;;;5036273;28;20185;-69
2023/01/14 00:21:54;;;;;;;1999.90;999.90;;;8.20;1.00;;;;;;5036562;28;20425;-69
2023/01/14 00:24:21;;;;;;;1999.90;999.90;;;8.10;1.00;;;;;;5036638;28;20399;-69
2023/01/14 00:26:50;;;;;;;1999.90;999.90;;;8.20;1.00;;;;;;5036061;28;20841;-69
2023/01/14 00:29:18;;;;;;;1999.90;999.90;;;8.10;1.00;;;;;;5036409;28;20401;-68
2023/01/14 00:31:45;;;;;;;1999.90;999.90;;;8.10;1.00;;;;;;5036431;28;20434;-69
2023/01/14 00:34:12;;;;;;;1999.90;999.90;;;8.10;1.00;;;;;;5036453;28;20774;-69
2023/01/14 00:36:38;;;;;;;1999.90;999.90;;;8.10;1.00;;;;;;5036268;28;20439;-69
2023/01/14 00:39:04;;;;;;;1999.90;999.90;;;8.00;1.00;;;;;;5035607;28;20441;-69
2023/01/14 00:41:29;;;;;;;1999.90;999.90;;;8.00;1.00;;;;;;5035683;28;20522;-69
2023/01/14 00:43:58;;;;;;;1999.90;999.90;;;8.00;1.00;;;;;;5035702;28;20645;-69
2023/01/14 00:46:32;;;;;;;1999.90;999.90;;;8.10;1.00;;;;;;5036395;28;20196;-69
2023/01/14 00:49:03;;;;;;;1999.90;999.90;;;8.10;1.00;;;;;;5036105;28;20402;-69
2023/01/14 00:51:30;;;;;;;1999.90;999.90;;;8.20;1.00;;;;;;5036084;28;20513;-69
2023/01/14 00:53:56;;;;;;;1999.90;999.90;;;8.20;1.00;;;;;;5035148;28;20418;-69
2023/01/14 00:56:23;;;;;;;1999.90;999.90;;;8.20;1.00;;;;;;5035798;28;20914;-69
2023/01/14 00:58:49;;;;;;;1999.90;999.90;;;8.20;1.00;;;;;;5035872;28;20216;-69
2023/01/14 01:01:15;;;;;;;1999.90;999.90;;;8.30;1.00;;;;;;5035541;28;20460;-69
2023/01/14 01:03:44;;;;;;;1999.90;999.90;;;8.30;1.00;;;;;;5035906;28;20444;-69
2023/01/14 01:06:11;;;;;;;1999.90;999.90;;;8.40;1.00;;;;;;5035883;28;20402;-69
2023/01/14 01:08:37;;;;;;;1999.90;999.90;;;8.40;1.00;;;;;;5035491;28;20409;-69
2023/01/14 01:11:04;;;;;;;1999.90;999.90;;;8.50;1.00;;;;;;5035861;28;20464;-69
2023/01/14 01:13:30;;;;;;;1999.90;999.90;;;8.50;1.00;;;;;;5035795;28;20805;-68
2023/01/14 01:16:00;;;;;;;1999.90;999.90;;;8.50;1.00;;;;;;5035401;28;20429;-68
2023/01/14 01:18:26;;;;;;;1999.90;999.90;;;8.50;1.00;;;;;;5035008;28;20184;-69
2023/01/14 01:21:20;;;;;;;1999.90;999.90;;;8.50;1.00;;;;;;5034954;28;20465;-69
2023/01/14 01:23:46;;;;;;;1999.90;999.90;;;8.50;1.00;;;;;;5035214;28;20432;-69
2023/01/14 01:26:19;;;;;;;1999.90;999.90;;;8.50;1.00;;;;;;5035672;28;20433;-69
2023/01/14 01:28:48;;;;;;;1999.90;999.90;;;8.40;1.00;;;;;;5034909;28;20418;-69
2023/01/14 01:31:14;;;;;;;1999.90;999.90;;;8.50;1.00;;;;;;5035105;28;20428;-69
2023/01/14 01:33:41;;;;;;;1999.90;999.90;;;8.50;1.00;;;;;;5034938;28;20412;-69
2023/01/14 01:36:13;;;;;;;1999.90;999.90;;;8.50;1.00;;;;;;5035016;28;20436;-69
2023/01/14 01:38:39;;;;;;;1999.90;999.90;;;8.50;1.00;;;;;;5034389;28;20415;-69
2023/01/14 01:41:05;;;;;;;1999.90;999.90;;;8.60;1.00;;;;;;5034737;28;20506;-69
2023/01/14 01:43:32;;;;;;;1999.90;999.90;;;8.50;1.00;;;;;;5034839;28;20853;-69
2023/01/14 01:46:01;;;;;;;1999.90;999.90;;;8.50;1.00;;;;;;5035064;28;20170;-69
2023/01/14 01:48:33;;;;;;;1999.90;999.90;;;8.50;1.00;;;;;;5034900;28;20412;-69
2023/01/14 01:51:10;;;;;;;1999.90;999.90;;;8.50;1.00;;;;;;5034705;28;20943;-69
2023/01/14 01:53:39;;;;;;;1999.90;999.90;;;8.40;1.00;;;;;;5035021;28;20415;-69
2023/01/14 01:56:08;;;;;;;1999.90;999.90;;;8.40;1.00;;;;;;5034870;28;20507;-68
2023/01/14 01:58:34;;;;;;;1999.90;999.90;;;8.30;1.00;;;;;;5034263;28;20428;-69
2023/01/14 02:01:00;;;;;;;1999.90;999.90;;;8.30;1.00;;;;;;5033962;28;20455;-68
2023/01/14 02:03:45;;;;;;;1999.90;999.90;;;8.30;1.00;;;;;;5034477;28;20774;-69
2023/01/14 02:06:12;;;;;;;1999.90;999.90;;;8.30;1.00;;;;;;5034320;28;20403;-69
2023/01/14 02:08:40;;;;;;;1999.90;999.90;;;8.20;1.00;;;;;;5034200;28;20406;-69
2023/01/14 02:11:30;;;;;;;1999.90;999.90;;;8.20;1.00;;;;;;5033898;28;20486;-69
2023/01/14 02:14:14;;;;;;;1999.90;999.90;;;8.20;1.00;;;;;;5034541;28;20825;-69
2023/01/14 02:16:42;;;;;;;1999.90;999.90;;;8.20;1.00;;;;;;5034077;28;20419;-69
2023/01/14 02:19:28;;;;;;;1999.90;999.90;;;8.10;1.00;;;;;;5034349;28;20821;-69
2023/01/14 02:22:12;;;;;;;1999.90;999.90;;;8.10;1.00;;;;;;5034057;28;20443;-69
2023/01/14 02:24:56;;;;;;;1999.90;999.90;;;8.00;1.00;;;;;;5034030;28;20427;-69
2023/01/14 02:27:31;;;;;;;1999.90;999.90;;;8.00;1.00;;;;;;5034085;28;20906;-69
2023/01/14 02:30:12;;;;;;;1999.90;999.90;;;7.70;1.00;;;;;;5033594;28;20417;-69
2023/01/14 02:32:43;;;;;;;1999.90;999.90;;;7.90;1.00;;;;;;5033912;28;20411;-69
2023/01/14 02:35:28;;;;;;;1999.90;999.90;;;7.90;1.00;;;;;;5033832;28;20866;-69
2023/01/14 02:38:30;;;;;;;1999.90;999.90;;;7.90;1.00;;;;;;5033582;28;20413;-69
2023/01/14 02:41:10;;;;;;;1999.90;999.90;;;7.90;1.00;;;;;;5033652;28;20496;-69
2023/01/14 02:46:33;;;;;;;1999.90;999.90;;;7.80;1.00;;;;;;5033599;28;20838;-69
2023/01/14 02:49:01;;;;;;;1999.90;999.90;;;7.80;1.00;;;;;;5033268;28;20773;-69
2023/01/14 02:51:27;;;;;;;1999.90;999.90;;;7.80;1.00;;;;;;5033425;28;20489;-69
2023/01/14 02:53:53;;;;;;;1999.90;999.90;;;7.80;1.00;;;;;;5033430;28;20409;-69
2023/01/14 02:56:18;;;;;;;1999.90;999.90;;;7.80;1.00;;;;;;5033762;28;20414;-69
2023/01/14 02:58:59;;;;;;;1999.90;999.90;;;7.80;1.00;;;;;;5033453;28;20180;-69
2023/01/14 03:01:46;;;;;;;1999.90;999.90;;;7.70;1.00;;;;;;5033368;28;20207;-69
2023/01/14 03:04:35;;;;;;;1999.90;999.90;;;7.80;1.00;;;;;;5033972;28;20412;-69
2023/01/14 03:07:03;;;;;;;1999.90;999.90;;;7.70;1.00;;;;;;5033469;28;20409;-69
2023/01/14 03:09:41;;;;;;;1999.90;999.90;;;7.70;1.00;;;;;;5033043;28;20587;-69
2023/01/14 03:12:23;;;;;;;1999.90;999.90;;;7.70;1.00;;;;;;5033291;28;20411;-69
2023/01/14 03:14:58;;;;;;;1999.90;999.90;;;7.70;1.00;;;;;;5033085;28;20411;-69
2023/01/14 03:17:39;;;;;;;1999.90;999.90;;;7.60;1.00;;;;;;5036376;28;20404;-69
2023/01/14 03:20:10;;;;;;;1999.90;999.90;;;7.60;1.00;;;;;;5036461;28;20459;-68
2023/01/14 03:22:37;;;;;;;1999.90;999.90;;;7.60;1.00;;;;;;5037038;28;20433;-69
2023/01/14 03:25:04;;;;;;;1999.90;999.90;;;7.60;1.00;;;;;;5036784;28;20407;-69
2023/01/14 03:27:33;;;;;;;1999.90;999.90;;;7.60;1.00;;;;;;5036614;28;20407;-68
2023/01/14 03:30:12;;;;;;;1999.90;999.90;;;7.70;1.00;;;;;;5036171;28;20405;-69
2023/01/14 03:32:56;;;;;;;1999.90;999.90;;;7.70;1.00;;;;;;5036624;28;20955;-69
2023/01/14 03:35:35;;;;;;;1999.90;999.90;;;7.70;1.00;;;;;;5036737;28;20394;-69
2023/01/14 03:38:12;;;;;;;1999.90;999.90;;;7.70;1.00;;;;;;5036840;28;20449;-69
2023/01/14 03:40:39;;;;;;;1999.90;999.90;;;7.80;1.00;;;;;;5036170;28;20470;-69
2023/01/14 03:43:20;;;;;;;1999.90;999.90;;;7.80;1.00;;;;;;5036284;28;20411;-68
2023/01/14 03:45:46;;;;;;;1999.90;999.90;;;7.80;1.00;;;;;;5036716;28;20415;-69
2023/01/14 03:48:12;;;;;;;1999.90;999.90;;;7.80;1.00;;;;;;5037050;28;20411;-69
2023/01/14 03:50:57;;;;;;;1999.90;999.90;;;7.80;1.00;;;;;;5036185;28;20427;-69
2023/01/14 03:53:40;;;;;;;1999.90;999.90;;;7.80;1.00;;;;;;5036487;28;20411;-68
2023/01/14 03:56:29;;;;;;;1999.90;999.90;;;7.80;1.00;;;;;;5044481;28;20417;-69
2023/01/14 03:59:05;;;;;;;1999.90;999.90;;;7.80;1.00;;;;;;5045666;28;20457;-68
2023/01/14 04:01:40;;;;;;;1999.90;999.90;;;7.80;1.00;;;;;;5043051;28;20627;-68
2023/01/14 04:04:07;;;;;;;1999.90;999.90;;;7.80;1.00;;;;;;5036617;28;20769;-68
2023/01/14 04:06:32;;;;;;;1999.90;999.90;;;7.90;1.00;;;;;;5036316;28;20824;-68
2023/01/14 04:08:58;;;;;;;1999.90;999.90;;;7.90;1.00;;;;;;5036391;28;20416;-68
2023/01/14 04:11:23;;;;;;;1999.90;999.90;;;7.90;1.00;;;;;;5037833;28;20199;-69
2023/01/14 04:16:33;;;;;;;1999.90;999.90;;;7.90;1.00;;;;;;5036362;28;20182;-68
2023/01/14 04:18:59;;;;;;;1999.90;999.90;;;7.90;99.90;;;;;;5035935;28;20411;-68
2023/01/14 04:21:24;;;;;;;1999.90;999.90;;;7.90;99.90;;;;;;5035997;28;20214;-69
2023/01/14 04:23:50;;;;;;;1999.90;999.90;;;7.90;99.90;;;;;;5036048;28;20245;-68
2023/01/14 04:26:16;;;;;;;1999.90;999.90;;;8.00;99.90;;;;;;5035817;28;20181;-69
2023/01/14 04:28:41;;;;;;;1999.90;999.90;;;8.00;99.90;;;;;;5035799;28;20224;-68
2023/01/14 04:31:07;;;;;;;1999.90;999.90;;;8.00;99.90;;;;;;5035509;28;20223;-68
2023/01/14 04:33:32;;;;;;;1999.90;999.90;;;8.00;99.90;;;;;;5036526;28;20630;-68
2023/01/14 04:35:58;;;;;;;1999.90;999.90;;;8.00;99.90;;;;;;5035653;28;20172;-68
2023/01/14 04:38:24;;;;;;;1999.90;999.90;;;8.00;99.90;;;;;;5035355;28;20692;-69
2023/01/14 04:40:56;;;;;;;1999.90;999.90;;;7.90;99.90;;;;;;5035358;28;20211;-69
2023/01/14 04:43:22;;;;;;;1999.90;999.90;;;7.80;99.90;;;;;;5035826;28;20414;-68
2023/01/14 04:45:52;;;;;;;1999.90;999.90;;;7.80;99.90;;;;;;5035320;28;20562;-69
2023/01/14 04:48:19;;;;;;;1999.90;999.90;;;7.80;99.90;;;;;;5035289;28;20430;-68
2023/01/14 04:50:46;;;;;;;1999.90;999.90;;;7.70;99.90;;;;;;5035449;28;20506;-69
2023/01/14 04:53:17;;;;;;;1999.90;999.90;;;7.70;99.90;;;;;;5035434;28;20407;-68
2023/01/14 04:55:45;;;;;;;1999.90;999.90;;;7.60;1.00;;;;;;5035055;28;20414;-69
2023/01/14 04:58:13;;;;;;;1999.90;999.90;;;7.60;1.00;;;;;;5035758;28;20419;-68
2023/01/14 05:00:39;;;;;;;1999.90;999.90;;;7.60;1.00;;;;;;5035250;28;20462;-69
2023/01/14 05:03:12;;;;;;;1999.90;999.90;;;7.60;1.00;;;;;;5035503;28;20415;-68
2023/01/14 05:05:38;;;;;;;1999.90;999.90;;;7.60;1.00;;;;;;5035398;28;20434;-68
2023/01/14 05:08:05;;;;;;;1999.90;999.90;;;7.60;1.00;;;;;;5034929;28;20418;-68
2023/01/14 05:10:32;;;;;;;1999.90;999.90;;;7.60;1.00;;;;;;5035273;28;20841;-69
2023/01/14 05:12:57;;;;;;;1999.90;999.90;;;7.60;1.00;;;;;;5035046;28;20411;-68
2023/01/14 05:15:24;;;;;;;1999.90;999.90;;;7.60;1.00;;;;;;5035438;28;20778;-68
2023/01/14 05:17:50;;;;;;;1999.90;999.90;;;7.60;1.00;;;;;;5034563;28;20450;-69
2023/01/14 05:20:16;;;;;;;1999.90;999.90;;;7.50;1.00;;;;;;5034532;28;21162;-69
2023/01/14 05:22:42;;;;;;;1999.90;999.90;;;7.40;1.00;;;;;;5035168;28;20205;-69
2023/01/14 05:25:07;;;;;;;1999.90;999.90;;;7.40;1.00;;;;;;5034695;28;20407;-68
2023/01/14 05:27:34;;;;;;;1999.90;999.90;;;7.40;1.00;;;;;;5034668;28;20535;-69
2023/01/14 05:29:59;;;;;;;1999.90;999.90;;;7.40;1.00;;;;;;5033959;28;20498;-68
2023/01/14 05:32:25;;;;;;;1999.90;999.90;;;7.40;1.00;;;;;;5034604;28;20845;-69
2023/01/14 05:34:51;;;;;;;1999.90;999.90;;;7.40;1.00;;;;;;5034708;28;20445;-68
2023/01/14 05:37:17;;;;;;;1999.90;999.90;;;7.40;1.00;;;;;;5034636;28;20178;-69
2023/01/14 05:39:42;;;;;;;1999.90;999.90;;;7.50;1.00;;;;;;5033885;28;20168;-68
2023/01/14 05:47:36;;;;;;;1999.90;999.90;;;7.40;1.00;;;;;;5034738;28;20405;-69
2023/01/14 05:50:02;;;;;;;1999.90;999.90;;;7.40;1.00;;;;;;5034387;28;20432;-69
2023/01/14 05:52:27;;;;;;;1999.90;999.90;;;7.50;1.00;;;;;;5034269;28;20235;-68
2023/01/14 05:54:53;;;;;;;1999.90;999.90;;;7.50;1.00;;;;;;5033828;28;20682;-69
2023/01/14 05:57:18;;;;;;;1999.90;999.90;;;7.60;1.00;;;;;;5034062;28;20539;-69
2023/01/14 05:59:44;;;;;;;1999.90;999.90;;;7.70;1.00;;;;;;5033466;28;20185;-69
2023/01/14 06:07:38;;;;;;;1999.90;999.90;;;7.60;1.00;;;;;;5034371;28;20398;-69
2023/01/14 06:10:04;;;;;;;1999.90;999.90;;;7.60;1.00;;;;;;5033703;28;20427;-68
2023/01/14 06:15:14;;;;;;;1999.90;999.90;;;7.60;1.00;;;;;;5033604;28;20438;-68
2023/01/14 06:17:45;;;;;;;1999.90;999.90;;;7.60;1.00;;;;;;5033118;28;20408;-68
2023/01/14 06:20:11;;;;;;;1999.90;999.90;;;7.70;1.00;;;;;;5033234;28;20215;-68
2023/01/14 06:22:37;;;;;;;1999.90;999.90;;;7.70;1.00;;;;;;5033252;28;20412;-68
2023/01/14 06:25:03;;;;;;;1999.90;999.90;;;7.70;1.00;;;;;;5032783;28;20422;-68
2023/01/14 06:27:28;;;;;;;1999.90;999.90;;;7.80;1.00;;;;;;5032521;28;20169;-68
2023/01/14 06:29:54;;;;;;;1999.90;999.90;;;7.70;1.00;;;;;;5032606;28;20404;-68
2023/01/14 06:32:19;;;;;;;1999.90;999.90;;;7.80;99.90;;;;;;5032924;28;20166;-68
2023/01/14 06:34:45;;;;;;;1999.90;999.90;;;7.80;99.90;;;;;;5032843;28;20176;-68
2023/01/14 06:37:10;;;;;;;1999.90;999.90;;;7.80;99.90;;;;;;5032428;28;20640;-68
2023/01/14 06:39:37;;;;;;;1999.90;999.90;;;7.80;1.00;;;;;;5032102;28;20176;-69
2023/01/14 06:42:02;;;;;;;1999.90;999.90;;;7.80;99.90;;;;;;5032313;28;20184;-68
2023/01/14 06:44:28;;;;;;;1999.90;999.90;;;7.90;99.90;;;;;;5033720;28;20867;-68
2023/01/14 06:46:54;;;;;;;1999.90;999.90;;;7.90;99.90;;;;;;5037581;28;20239;-69
2023/01/14 06:49:20;;;;;;;1999.90;999.90;;;7.90;99.90;;;;;;5045674;28;20242;-68
2023/01/14 06:51:45;;;;;;;1999.90;999.90;;;7.90;1.00;;;;;;5046327;28;20441;-68
2023/01/14 06:54:12;;;;;;;1999.90;999.90;;;7.80;1.00;;;;;;5037690;28;20233;-68
2023/01/14 06:56:38;;;;;;;1999.90;999.90;;;7.80;1.00;;;;;;5037225;28;20672;-68
2023/01/14 06:59:03;;;;;;;1999.90;999.90;;;7.90;99.90;;;;;;5037729;28;20498;-68
2023/01/14 07:01:29;;;;;;;1999.90;999.90;;;7.90;99.90;;;;;;5037398;28;20204;-69
2023/01/14 07:03:54;;;;;;;1999.90;999.90;;;7.90;1.00;;;;;;5037483;28;20174;-68
2023/01/14 07:06:20;;;;;;;1999.90;999.90;;;7.90;1.00;;;;;;5037348;28;20198;-68
2023/01/14 07:08:46;;;;;;;1999.90;999.90;;;7.90;1.00;;;;;;5037021;28;20591;-68
2023/01/14 07:11:14;;;;;;;1999.90;999.90;;;7.90;1.00;;;;;;5037172;28;20199;-68
2023/01/14 07:13:40;;;;;;;1999.90;999.90;;;7.90;1.00;;;;;;5037395;28;20643;-68
2023/01/14 07:16:06;;;;;;;1999.90;999.90;;;8.00;1.00;;;;;;5037145;28;20478;-68
2023/01/14 07:18:31;;;;;;;1999.90;999.90;;;7.90;1.00;;;;;;5037053;28;20403;-68
2023/01/14 07:20:59;;;;;;;1999.90;999.90;;;7.90;1.00;;;;;;5037389;28;20205;-68
2023/01/14 07:23:25;;;;;;;1999.90;999.90;;;7.90;1.00;;;;;;5037030;28;20170;-68
2023/01/14 07:25:55;;;;;;;1999.90;999.90;;;7.90;1.00;;;;;;5036808;28;20884;-68
2023/01/14 07:28:22;;;;;;;1999.90;999.90;;;7.80;1.00;;;;;;5037256;28;20425;-68
2023/01/14 07:30:48;;;;;;;1999.90;999.90;;;7.80;1.00;;;;;;5036472;28;20450;-68
2023/01/14 07:33:13;;;;;;;1999.90;999.90;;;7.80;1.00;;;;;;5036809;28;20400;-69
2023/01/14 07:35:39;;;;;;;1999.90;999.90;;;7.80;1.00;;;;;;5036456;28;20256;-68
2023/01/14 07:38:05;;;;;;;1999.90;999.90;;;7.80;1.00;;;;;;5036237;28;20261;-68
2023/01/14 07:40:30;;;;;;;1999.90;999.90;;;7.90;1.00;;;;;;5036098;28;20206;-69
2023/01/14 07:42:57;;;;;;;1999.90;999.90;;;7.90;1.00;;;;;;5036342;28;20173;-69
2023/01/14 07:45:24;;;;;;;1999.90;999.90;;;7.90;1.00;;;;;;5036399;28;20650;-68
2023/01/14 07:47:50;;;;;;;1999.90;999.90;;;8.00;1.00;;;;;;5036195;28;20407;-69
2023/01/14 07:50:16;;;;;;;1999.90;999.90;;;8.00;1.00;;;;;;5036009;28;20432;-68
2023/01/14 07:52:42;;;;;;;1999.90;999.90;;;8.10;1.00;;;;;;5036146;28;20401;-69
2023/01/14 07:55:08;;;;;;;1999.90;999.90;;;8.10;1.00;;;;;;5045015;28;20467;-69
2023/01/14 07:57:33;;;;;;;1999.90;999.90;;;8.10;1.00;;;;;;5053392;28;20173;-68
2023/01/14 07:59:59;;;;;;;1999.90;999.90;;;8.50;16.80;;;;;;5047370;28;20471;-68
2023/01/14 08:02:24;;;;;;;1999.90;999.90;;;8.10;1.00;;;;;;5035352;28;20671;-69
2023/01/14 08:04:50;;;;;;;1999.90;999.90;;;8.20;1.00;;;;;;5035605;28;20172;-68
2023/01/14 08:07:16;;;;;;;1999.90;999.90;;;8.30;1.00;;;;;;5035904;28;20176;-69
2023/01/14 08:09:42;;;;;;;1999.90;999.90;;;8.40;1.00;;;;;;5036239;28;20175;-69
2023/01/14 08:12:07;;;;;;;1999.90;999.90;;;8.40;1.00;;;;;;5036267;28;20769;-69
2023/01/14 08:14:33;;;;;;;1999.90;999.90;;;8.50;1.00;;;;;;5035843;28;20189;-69
2023/01/14 08:17:02;;;;;;;1999.90;999.90;;;8.50;1.00;;;;;;5035828;28;20174;-68
2023/01/14 08:19:28;;;;;;;1999.90;999.90;;;8.60;1.00;;;;;;5035668;28;20235;-68
2023/01/14 08:21:53;;;;;;;1999.90;999.90;;;8.60;1.00;;;;;;5035386;28;20957;-69
2023/01/14 08:24:19;;;;;;;1999.90;999.90;;;8.60;1.00;;;;;;5034964;28;20421;-69
2023/01/14 08:26:44;;;;;;;1999.90;999.90;;;8.70;1.00;;;;;;5037336;28;20260;-68
2023/01/14 08:29:10;;;;;;;1999.90;999.90;;;8.70;1.00;;;;;;5050224;28;20180;-68
2023/01/14 08:31:35;;;;;;;1999.90;999.90;;;8.70;1.00;;;;;;5037130;28;20604;-69
2023/01/14 08:34:01;;;;;;;1999.90;999.90;;;8.70;1.00;;;;;;5034447;28;20175;-69
2023/01/14 08:36:27;;;;;;;1999.90;999.90;;;8.80;1.00;;;;;;5034369;28;20178;-69
2023/01/14 08:38:53;;;;;;;1999.90;999.90;;;8.80;1.00;;;;;;5034028;28;20177;-69
2023/01/14 08:41:19;;;;;;;1999.90;999.90;;;8.80;1.00;;;;;;5033701;28;20569;-69
2023/01/14 08:43:49;;;;;;;1999.90;999.90;;;8.80;1.00;;;;;;5034158;28;20406;-69
2023/01/14 08:46:15;;;;;;;1999.90;999.90;;;8.80;1.00;;;;;;5034241;28;20459;-69
2023/01/14 08:48:41;;;;;;;1999.90;999.90;;;8.80;1.00;;;;;;5034134;28;20416;-69
2023/01/14 08:51:09;;;;;;;1999.90;999.90;;;8.80;1.00;;;;;;5034291;28;20506;-69
2023/01/14 08:53:36;;;;;;;1999.90;999.90;;;8.90;1.00;;;;;;5034175;28;20218;-69
2023/01/14 08:56:03;;;;;;;1999.90;999.90;;;8.90;1.00;;;;;;5034925;28;20837;-69
2023/01/14 08:58:30;;;;;;;1999.90;999.90;;;8.90;1.00;;;;;;5033955;28;20410;-69
2023/01/14 09:01:01;;;;;;;1999.90;999.90;;;9.00;1.00;;;;;;5034064;28;20470;-69
2023/01/14 09:03:30;;;;;;;1999.90;999.90;;;9.00;1.00;;;;;;5034346;28;20399;-69
2023/01/14 09:06:00;;;;;;;1999.90;999.90;;;9.00;1.00;;;;;;5034216;28;20420;-69
2023/01/14 09:19:24;;;;;;;1999.90;999.90;;;9.10;1.00;;;;;;5034127;28;20442;-68
2023/01/14 09:21:50;;;;;;;1999.90;999.90;;;9.10;1.00;;;;;;5034234;28;20502;-69
2023/01/14 09:24:15;;;;;;;1999.90;999.90;;;9.10;1.00;;;;;;5034434;28;20644;-69
2023/01/14 09:26:41;;;;;;;1999.90;999.90;;;9.30;1.00;;;;;;5034091;28;20180;-68
2023/01/14 09:29:06;;;;;;;1999.90;999.90;;;9.30;1.00;;;;;;5033531;28;20171;-69
2023/01/14 09:31:32;;;;;;;1999.90;999.90;;;9.30;1.00;;;;;;5033600;28;20680;-69
2023/01/14 09:33:57;;;;;;;1999.90;999.90;;;9.40;1.00;;;;;;5033800;28;20577;-69
2023/01/14 09:36:23;;;;;;;1999.90;999.90;;;9.40;1.00;;;;;;5034212;28;20175;-69
2023/01/14 09:38:49;;;;;;;1999.90;999.90;;;9.40;1.00;;;;;;5033107;28;20186;-69
2023/01/14 09:41:30;;;;;;;1999.90;999.90;;;9.40;1.00;;;;;;5033070;28;20218;-70
2023/01/14 09:43:56;;;;;;;1999.90;999.90;;;9.50;1.00;;;;;;5033020;28;20174;-69
2023/01/14 09:46:25;;;;;;;1999.90;999.90;;;9.50;1.00;;;;;;5032955;28;20460;-69
2023/01/14 09:48:53;;;;;;;1999.90;999.90;;;9.60;1.00;;;;;;5032719;28;20438;-69
2023/01/14 09:51:31;;;;;;;1999.90;999.90;;;9.50;1.00;;;;;;5032879;28;20430;-69
2023/01/14 09:54:06;;;;;;;1999.90;999.90;;;9.70;1.00;;;;;;5032962;28;20430;-69
2023/01/14 09:56:37;;;;;;;1999.90;999.90;;;9.70;1.00;;;;;;5032738;28;20422;-69
2023/01/14 09:59:29;;;;;;;1999.90;999.90;;;9.80;1.00;;;;;;5032504;28;20422;-69
2023/01/14 10:01:54;;;;;;;1999.90;999.90;;;9.90;1.00;;;;;;5016626;28;20976;-69
2023/01/14 10:04:44;;;;;;;1999.90;999.90;;;9.90;1.00;;;;;;5032591;28;20462;-69
2023/01/14 10:07:12;;;;;;;1999.90;999.90;;;10.00;1.00;;;;;;5033514;28;20190;-69
2023/01/14 10:09:47;;;;;;;1999.90;999.90;;;9.90;1.00;;;;;;5032611;28;20818;-69
2023/01/14 10:12:36;;;;;;;1999.90;999.90;;;10.00;1.00;;;;;;5032757;28;20404;-69
2023/01/14 10:15:23;;;;;;;1999.90;999.90;;;10.10;1.00;;;;;;5032651;28;20394;-69
2023/01/14 10:17:56;;;;;;;1999.90;999.90;;;10.10;1.00;;;;;;5032952;28;20897;-69
2023/01/14 10:20:37;;;;;;;1999.90;999.90;;;10.10;1.00;;;;;;5032807;28;20871;-69
2023/01/14 10:23:12;;;;;;;1999.90;999.90;;;10.20;1.00;;;;;;5033101;28;20505;-69
2023/01/14 10:25:42;;;;;;;1999.90;999.90;;;10.20;1.00;;;;;;5033596;28;20396;-69
2023/01/14 10:28:14;;;;;;;1999.90;999.90;;;10.30;1.00;;;;;;5034668;28;20414;-69
2023/01/14 10:30:41;;;;;;;1999.90;999.90;;;10.10;1.00;;;;;;5033819;28;20933;-68
2023/01/14 10:33:10;;;;;;;1999.90;999.90;;;10.40;1.00;;;;;;5035788;28;20411;-69
2023/01/14 10:35:38;;;;;;;1999.90;999.90;;;10.20;1.00;;;;;;5035532;28;20411;-69
2023/01/14 10:38:04;;;;;;;1999.90;999.90;;;10.20;1.00;;;;;;5035098;28;20491;-69
2023/01/14 10:40:31;;;;;;;1999.90;999.90;;;10.00;1.00;;;;;;5034493;28;20821;-69
2023/01/14 10:43:00;;;;;;;1999.90;999.90;;;9.90;1.00;;;;;;5036870;28;20446;-69
2023/01/14 10:45:26;;;;;;;1999.90;999.90;;;9.80;1.00;;;;;;5035817;28;20762;-69
2023/01/14 10:48:02;;;;;;;1999.90;999.90;;;9.80;19.70;;;;;;5034817;28;20404;-69
2023/01/14 10:50:28;;;;;;;1999.90;999.90;;;9.70;46.60;;;;;;5035584;28;20427;-69
2023/01/14 10:53:12;;;;;;;1999.90;999.90;;;9.70;38.80;;;;;;5037063;28;20890;-68
2023/01/14 10:55:56;;;;;;;1999.90;999.90;;;9.70;40.40;;;;;;5037717;28;20411;-68
2023/01/14 10:58:36;;;;;;;1999.90;999.90;;;9.90;56.50;;;;;;5037582;28;20437;-68
2023/01/14 11:01:10;;;;;;;1999.90;999.90;;;9.70;63.00;;;;;;5038359;28;20465;-68
2023/01/14 11:03:39;;;;;;;1999.90;999.90;;;9.70;77.40;;;;;;5037790;28;20996;-69
2023/01/14 11:06:09;;;;;;;1999.90;999.90;;;9.70;85.60;;;;;;5037221;28;20411;-69
2023/01/14 11:08:41;;;;;;;1999.90;999.90;;;9.80;99.90;;;;;;5036582;28;20416;-69
2023/01/14 11:11:10;;;;;;;1999.90;999.90;;;9.60;99.90;;;;;;5036313;28;21028;-69
2023/01/14 11:13:42;;;;;;;1999.90;999.90;;;9.60;99.90;;;;;;5036071;28;20402;-69
2023/01/14 11:16:27;;;;;;;1999.90;999.90;;;9.60;99.90;;;;;;5036569;28;20409;-69
2023/01/14 11:19:14;;;;;;;1999.90;999.90;;;9.60;99.90;;;;;;5035697;28;20776;-68
2023/01/14 11:21:49;;;;;;;1999.90;999.90;;;9.60;99.90;;;;;;5035533;28;20468;-68
2023/01/14 11:24:26;;;;;;;1999.90;999.90;;;9.60;99.90;;;;;;5034320;28;20480;-68
2023/01/14 11:27:29;;;;;;;1999.90;999.90;;;9.60;99.90;;;;;;5035489;28;20412;-68
2023/01/14 11:29:59;;;;;;;1999.90;999.90;;;9.50;99.90;;;;;;4994055;28;20423;-68
2023/01/14 11:32:32;;;;;;;1999.90;999.90;;;9.60;99.90;;;;;;5029995;28;20531;-68
2023/01/14 11:35:01;;;;;;;1999.90;999.90;;;9.60;99.90;;;;;;5032800;28;20455;-68
2023/01/14 11:37:41;;;;;;;1999.90;999.90;;;9.50;99.90;;;;;;5037658;28;20425;-68
2023/01/14 11:40:22;;;;;;;1999.90;999.90;;;9.50;99.90;;;;;;5038476;28;20499;-69
2023/01/14 11:42:47;;;;;;;1999.90;999.90;;;9.50;99.90;;;;;;5039350;28;20398;-69
2023/01/14 11:45:13;;;;;;;1999.90;999.90;;;9.50;99.90;;;;;;5038406;28;20394;-68
2023/01/14 11:47:52;;;;;;;1999.90;999.90;;;9.50;99.90;;;;;;5037765;28;20179;-69
2023/01/14 11:50:24;;;;;;;1999.90;999.90;;;9.50;99.90;;;;;;5041727;28;20203;-68
2023/01/14 11:53:18;;;;;;;1999.90;999.90;;;9.60;99.90;;;;;;5048358;28;20414;-68
2023/01/14 11:55:47;;;;;;;1999.90;999.90;;;9.60;99.90;;;;;;5048114;28;20392;-68
2023/01/14 11:58:27;;;;;;;1999.90;999.90;;;9.50;99.90;;;;;;5049456;28;20417;-68
2023/01/14 12:01:04;;;;;;;1999.90;999.90;;;9.60;99.90;;;;;;5048436;28;20488;-68
2023/01/14 12:03:41;;;;;;;1999.90;999.90;;;9.60;99.90;;;;;;5048463;28;20402;-68
2023/01/14 12:06:13;;;;;;;1999.90;999.90;;;9.70;99.90;;;;;;5047078;28;20463;-68
2023/01/14 12:08:41;;;;;;;1999.90;999.90;;;9.70;99.90;;;;;;5046273;28;20455;-68
2023/01/14 12:11:15;;;;;;;1999.90;999.90;;;9.70;99.90;;;;;;5047069;28;20429;-69
2023/01/14 12:16:48;;;;;;;1999.90;999.90;;;9.70;99.90;;;;;;5044105;28;20389;-68
2023/01/14 12:19:22;;;;;;;1999.90;999.90;;;9.70;99.90;;;;;;5044973;28;20393;-69
2023/01/14 12:21:54;;;;;;;1999.90;999.90;;;9.70;99.90;;;;;;5045682;28;20972;-69
2023/01/14 12:24:26;;;;;;;1999.90;999.90;;;9.70;99.90;;;;;;5046048;28;20393;-68
2023/01/14 12:26:54;;;;;;;1999.90;999.90;;;9.70;99.90;;;;;;5046749;28;20948;-69
2023/01/14 12:29:30;;;;;;;1999.90;999.90;;;9.70;99.90;;;;;;5044740;28;20417;-68
2023/01/14 12:32:09;;;;;;;1999.90;999.90;;;9.80;99.90;;;;;;5045792;28;20500;-68
2023/01/14 12:34:54;;;;;;;1999.90;999.90;;;9.70;99.90;;;;;;5046859;28;20398;-68
2023/01/14 12:37:28;;;;;;;1999.90;999.90;;;9.80;99.90;;;;;;5034278;28;20414;-68
2023/01/14 12:45:48;;;;;;;1999.90;999.90;;;9.90;99.90;;;;;;5034692;28;20410;-68
2023/01/14 12:48:17;;;;;;;1999.90;999.90;;;10.00;99.90;;;;;;5033357;28;20924;-68
2023/01/14 12:50:52;;;;;;;1999.90;999.90;;;9.90;99.40;;;;;;5034663;28;20442;-69
2023/01/14 12:53:40;;;;;;;1999.90;999.90;;;10.00;98.80;;;;;;5035433;28;20414;-68
2023/01/14 12:56:07;;;;;;;1999.90;999.90;;;10.10;96.20;;;;;;5027410;28;21239;-68
2023/01/14 12:58:37;;;;;;;1999.90;999.90;;;10.20;86.00;;;;;;5035406;28;20416;-68
2023/01/14 13:01:12;;;;;;;1999.90;999.90;;;10.20;77.20;;;;;;5034643;28;20454;-68
2023/01/14 13:03:52;;;;;;;1999.90;999.90;;;10.20;65.90;;;;;;5034981;28;20413;-68
2023/01/14 13:06:28;;;;;;;1999.90;999.90;;;10.30;64.50;;;;;;5035628;28;20493;-68
2023/01/14 13:08:57;;;;;;;1999.90;999.90;;;10.20;69.10;;;;;;5034872;28;20402;-69